createdAt,value
2018-10-11T00:00:07.731Z,98803.78
2018-10-11T00:02:36.192Z,98809.75
2018-10-11T00:05:05.492Z,98810.91
2018-10-11T00:07:33.923Z,98811.28
2018-10-11T00:10:02.369Z,98810.06
2018-10-11T00:12:30.800Z,98806.90
2018-10-11T00:15:00.150Z,98808.30
2018-10-11T00:17:28.646Z,98804.83
2018-10-11T00:19:57.151Z,98809.02
2018-10-11T00:22:25.670Z,98809.52
2018-10-11T00:24:54.189Z,98807.66
2018-10-11T00:27:22.699Z,98809.97
2018-10-11T00:29:51.153Z,98810.09
2018-10-11T00:32:19.603Z,98810.27
2018-10-11T00:34:48.047Z,98811.96
2018-10-11T00:37:16.548Z,98797.98
2018-10-11T00:39:45.100Z,98793.11
2018-10-11T00:42:13.558Z,98797.67
2018-10-11T00:44:42.025Z,98789.31
2018-10-11T00:47:10.477Z,98794.16
2018-10-11T00:49:38.957Z,98793.39
2018-10-11T00:52:07.476Z,98774.75
2018-10-11T00:54:36.236Z,98767.98
2018-10-11T00:57:04.723Z,98767.06
2018-10-11T00:59:33.197Z,98756.75
2018-10-11T01:02:01.716Z,98760.97
2018-10-11T01:04:30.212Z,98768.76
2018-10-11T01:06:58.693Z,98768.69
2018-10-11T01:09:27.166Z,98763.97
2018-10-11T01:11:55.931Z,98773.66
2018-10-11T01:14:24.381Z,98785.09
2018-10-11T01:16:53.627Z,98791.52
2018-10-11T01:19:22.079Z,98783.88
2018-10-11T01:21:51.195Z,98775.33
2018-10-11T01:24:19.637Z,98778.66
2018-10-11T01:26:48.135Z,98787.63
2018-10-11T01:29:16.582Z,98778.11
2018-10-11T01:31:45.078Z,98778.89
2018-10-11T01:34:14.197Z,98766.98
2018-10-11T01:36:42.704Z,98767.69
2018-10-11T01:39:11.211Z,98762.28
2018-10-11T01:41:39.663Z,98761.45
2018-10-11T01:44:08.107Z,98757.70
2018-10-11T01:46:36.562Z,98753.63
2018-10-11T01:49:05.077Z,98756.20
2018-10-11T01:51:33.492Z,98753.44
2018-10-11T01:54:01.985Z,98748.64
2018-10-11T01:56:30.656Z,98752.20
2018-10-11T01:58:59.096Z,98754.79
2018-10-11T02:01:27.555Z,98748.52
2018-10-11T02:03:55.997Z,98750.55
2018-10-11T02:06:24.373Z,98745.86
2018-10-11T02:08:52.823Z,98744.05
2018-10-11T02:11:21.459Z,98740.49
2018-10-11T02:13:49.933Z,98736.93
2018-10-11T02:16:18.392Z,98734.07
2018-10-11T02:18:47.049Z,98733.52
2018-10-11T02:21:15.487Z,98730.94
2018-10-11T02:23:44.255Z,98729.41
2018-10-11T02:26:12.949Z,98739.80
2018-10-11T02:28:41.417Z,98739.23
2018-10-11T02:31:09.800Z,98745.66
2018-10-11T02:33:38.316Z,98755.62
2018-10-11T02:36:06.746Z,98756.89
2018-10-11T02:38:35.767Z,98745.23
2018-10-11T02:41:04.256Z,98749.84
2018-10-11T02:43:32.747Z,98767.92
2018-10-11T02:46:01.240Z,98772.73
2018-10-11T02:48:29.678Z,98776.13
2018-10-11T02:50:58.144Z,98775.14
2018-10-11T02:53:26.721Z,98774.33
2018-10-11T02:55:55.155Z,98769.16
2018-10-11T02:58:34.986Z,98772.53
2018-10-11T03:01:03.408Z,98774.25
2018-10-11T03:03:32.599Z,98773.69
2018-10-11T03:06:02.514Z,98778.09
2018-10-11T03:08:30.995Z,98775.49
2018-10-11T03:10:59.681Z,98772.48
2018-10-11T03:13:28.604Z,98774.45
2018-10-11T03:15:57.084Z,98771.93
2018-10-11T03:18:25.524Z,98770.05
2018-10-11T03:20:53.951Z,98774.84
2018-10-11T03:23:22.380Z,98775.93
2018-10-11T03:25:51.319Z,98773.83
2018-10-11T03:28:19.743Z,98768.42
2018-10-11T03:30:48.243Z,98760.06
2018-10-11T03:33:16.800Z,98764.02
2018-10-11T03:35:47.091Z,98765.42
2018-10-11T03:38:15.539Z,98771.06
2018-10-11T03:40:44.164Z,98771.84
2018-10-11T03:43:12.626Z,98768.59
2018-10-11T03:45:41.096Z,98772.28
2018-10-11T03:48:09.528Z,98770.29
2018-10-11T03:50:38.068Z,98765.24
2018-10-11T03:53:06.669Z,98767.26
2018-10-11T03:55:35.113Z,98776.16
2018-10-11T03:58:03.565Z,98771.47
2018-10-11T04:00:32.048Z,98767.29
2018-10-11T04:03:00.465Z,98768.90
2018-10-11T04:05:28.946Z,98769.16
2018-10-11T04:07:57.351Z,98770.22
2018-10-11T04:10:25.844Z,98780.97
2018-10-11T04:12:54.315Z,98789.31
2018-10-11T04:15:22.814Z,98793.19
2018-10-11T04:17:51.294Z,98785.09
2018-10-11T04:20:19.756Z,98786.64
2018-10-11T04:22:49.224Z,98791.86
2018-10-11T04:25:17.686Z,98792.72
2018-10-11T04:27:46.102Z,98799.20
2018-10-11T04:30:14.700Z,98803.05
2018-10-11T04:32:43.844Z,98803.61
2018-10-11T04:35:12.340Z,98800.19
2018-10-11T04:37:41.002Z,98801.50
2018-10-11T04:40:09.455Z,98804.53
2018-10-11T04:42:37.981Z,98804.61
2018-10-11T04:45:06.384Z,98803.90
2018-10-11T04:47:35.239Z,98803.83
2018-10-11T04:50:03.669Z,98809.89
2018-10-11T04:52:32.123Z,98749.57
2018-10-11T04:55:01.020Z,98821.52
2018-10-11T04:57:29.484Z,98776.44
2018-10-11T04:59:57.963Z,98815.16
2018-10-11T05:02:26.959Z,98819.52
2018-10-11T05:04:55.375Z,98831.20
2018-10-11T05:07:23.961Z,98828.70
2018-10-11T05:09:52.439Z,98838.23
2018-10-11T05:12:20.956Z,98803.39
2018-10-11T05:14:49.711Z,98841.86
2018-10-11T05:17:18.202Z,98845.30
2018-10-11T05:19:46.671Z,98840.65
2018-10-11T05:22:15.171Z,98846.27
2018-10-11T05:24:43.641Z,98836.89
2018-10-11T05:27:12.132Z,98831.45
2018-10-11T05:29:40.601Z,98833.80
2018-10-11T05:32:09.160Z,98828.50
2018-10-11T05:34:37.595Z,98825.41
2018-10-11T05:37:06.280Z,98818.58
2018-10-11T05:39:34.752Z,98815.55
2018-10-11T05:42:03.220Z,98817.71
2018-10-11T05:44:32.025Z,98822.84
2018-10-11T05:47:01.732Z,98821.80
2018-10-11T05:49:30.238Z,98818.34
2018-10-11T05:51:58.721Z,98827.64
2018-10-11T05:54:27.461Z,98834.25
2018-10-11T05:56:55.954Z,98797.94
2018-10-11T05:59:24.425Z,98835.27
2018-10-11T06:01:52.855Z,98846.27
2018-10-11T06:04:21.464Z,98858.97
2018-10-11T06:06:50.415Z,98862.55
2018-10-11T06:09:19.705Z,98863.80
2018-10-11T06:11:48.180Z,98861.86
2018-10-11T06:14:16.756Z,98868.69
2018-10-11T06:16:45.280Z,98877.65
2018-10-11T06:19:14.931Z,98881.41
2018-10-11T06:21:43.763Z,98881.61
2018-10-11T06:24:12.268Z,98877.51
2018-10-11T06:26:42.049Z,98879.77
2018-10-11T06:29:10.708Z,98877.58
2018-10-11T06:31:39.213Z,98877.52
2018-10-11T06:34:07.741Z,98876.47
2018-10-11T06:36:36.451Z,98881.46
2018-10-11T06:39:06.603Z,98887.27
2018-10-11T06:41:35.092Z,98896.24
2018-10-11T06:44:03.562Z,98906.36
2018-10-11T06:46:31.948Z,98914.31
2018-10-11T06:49:00.467Z,98917.53
2018-10-11T06:51:29.035Z,98913.72
2018-10-11T06:53:57.468Z,98929.89
2018-10-11T06:56:25.921Z,98921.19
2018-10-11T06:58:54.429Z,98915.27
2018-10-11T07:01:23.456Z,98924.30
2018-10-11T07:03:51.933Z,98922.12
2018-10-11T07:06:22.336Z,98931.20
2018-10-11T07:08:50.811Z,98928.33
2018-10-11T07:11:19.633Z,98931.34
2018-10-11T07:13:48.337Z,98923.80
2018-10-11T07:16:16.813Z,98926.93
2018-10-11T07:18:45.585Z,98911.31
2018-10-11T07:21:14.466Z,98911.87
2018-10-11T07:23:43.464Z,98915.62
2018-10-11T07:26:11.914Z,98921.31
2018-10-11T07:28:40.795Z,98918.02
2018-10-11T07:31:09.490Z,98923.48
2018-10-11T07:33:37.963Z,98919.98
2018-10-11T07:36:06.413Z,98921.79
2018-10-11T07:38:34.926Z,98926.52
2018-10-11T07:41:03.414Z,98930.47
2018-10-11T07:43:32.390Z,98930.35
2018-10-11T07:46:01.606Z,98941.89
2018-10-11T07:48:30.040Z,98939.52
2018-10-11T07:50:58.493Z,98934.39
2018-10-11T07:53:26.934Z,98934.02
2018-10-11T07:55:55.433Z,98935.86
2018-10-11T07:58:23.860Z,98940.23
2018-10-11T08:00:52.311Z,98943.38
2018-10-11T08:03:20.806Z,98943.72
2018-10-11T08:05:49.220Z,98934.45
2018-10-11T08:08:17.702Z,98933.37
2018-10-11T08:10:46.223Z,98934.75
2018-10-11T08:13:14.657Z,98933.61
2018-10-11T08:15:43.186Z,98941.19
2018-10-11T08:18:11.619Z,98950.77
2018-10-11T08:20:40.834Z,98945.91
2018-10-11T08:23:09.319Z,98950.38
2018-10-11T08:25:38.251Z,98946.94
2018-10-11T08:28:06.308Z,98942.58
2018-10-11T08:30:35.367Z,98950.78
2018-10-11T08:33:03.825Z,98945.96
2018-10-11T08:35:32.317Z,98943.30
2018-10-11T08:38:00.934Z,98934.60
2018-10-11T08:40:29.200Z,98937.51
2018-10-11T08:42:58.668Z,98935.73
2018-10-11T08:45:27.205Z,98938.16
2018-10-11T08:47:55.624Z,98937.19
2018-10-11T08:50:24.162Z,98939.97
2018-10-11T08:52:52.584Z,98925.78
2018-10-11T08:55:21.739Z,98926.20
2018-10-11T08:57:50.167Z,98923.34
2018-10-11T09:00:18.659Z,98924.25
2018-10-11T09:02:47.127Z,98929.87
2018-10-11T09:05:15.627Z,98924.95
2018-10-11T09:07:44.097Z,98923.01
2018-10-11T09:10:12.624Z,98914.75
2018-10-11T09:12:41.096Z,98928.88
2018-10-11T09:15:09.773Z,98943.36
2018-10-11T09:17:38.307Z,98943.88
2018-10-11T09:20:06.764Z,98953.59
2018-10-11T09:22:35.232Z,98947.65
2018-10-11T09:25:03.689Z,98947.77
2018-10-11T09:27:32.131Z,98944.21
2018-10-11T09:30:01.356Z,98957.49
2018-10-11T09:32:29.836Z,98956.30
2018-10-11T09:34:58.312Z,98951.66
2018-10-11T09:37:26.756Z,98962.58
2018-10-11T09:39:55.251Z,98958.16
2018-10-11T09:42:23.684Z,98966.98
2018-10-11T09:44:52.103Z,98960.84
2018-10-11T09:47:20.627Z,98959.74
2018-10-11T09:49:49.090Z,98944.05
2018-10-11T09:52:17.615Z,98944.91
2018-10-11T09:54:46.076Z,98943.09
2018-10-11T09:57:21.814Z,98943.07
2018-10-11T09:59:50.451Z,98945.81
2018-10-11T10:02:19.265Z,98949.49
2018-10-11T10:04:48.940Z,98958.69
2018-10-11T10:07:17.407Z,98959.77
2018-10-11T10:09:46.525Z,98962.52
2018-10-11T10:12:15.445Z,98959.45
2018-10-11T10:14:44.600Z,98965.88
2018-10-11T10:17:13.065Z,98967.59
2018-10-11T10:19:42.093Z,98966.44
2018-10-11T10:22:10.573Z,98968.69
2018-10-11T10:24:39.198Z,98967.48
2018-10-11T10:27:07.667Z,98973.93
2018-10-11T10:29:36.251Z,98981.67
2018-10-11T10:32:05.008Z,98982.20
2018-10-11T10:34:33.477Z,98979.82
2018-10-11T10:37:02.215Z,98964.75
2018-10-11T10:39:30.650Z,98955.73
2018-10-11T10:41:59.111Z,98958.03
2018-10-11T10:44:27.631Z,98946.26
2018-10-11T10:46:56.064Z,98948.69
2018-10-11T10:49:25.672Z,98943.92
2018-10-11T10:51:54.172Z,98950.73
2018-10-11T10:54:28.128Z,98947.77
2018-10-11T10:56:57.599Z,98946.42
2018-10-11T10:59:26.206Z,98939.06
2018-10-11T11:01:55.764Z,98935.88
2018-10-11T11:04:24.479Z,98926.97
2018-10-11T11:06:52.960Z,98925.20
2018-10-11T11:09:21.457Z,98921.33
2018-10-11T11:11:49.900Z,98922.53
2018-10-11T11:14:18.576Z,98918.80
2018-10-11T11:16:47.316Z,98911.98
2018-10-11T11:19:16.431Z,98907.75
2018-10-11T11:21:45.015Z,98903.48
2018-10-11T11:24:13.479Z,98894.11
2018-10-11T11:26:41.952Z,98893.41
2018-10-11T11:29:10.441Z,98890.14
2018-10-11T11:31:38.932Z,98883.94
2018-10-11T11:34:07.444Z,98874.97
2018-10-11T11:36:35.851Z,98880.48
2018-10-11T11:39:05.977Z,98878.86
2018-10-11T11:41:34.409Z,98877.03
2018-10-11T11:44:02.871Z,98872.84
2018-10-11T11:46:31.255Z,98868.45
2018-10-11T11:48:59.647Z,98860.99
2018-10-11T11:51:28.244Z,98852.63
2018-10-11T11:53:56.644Z,98848.41
2018-10-11T11:56:25.023Z,98839.20
2018-10-11T11:58:53.408Z,98835.59
2018-10-11T12:01:21.793Z,98840.17
2018-10-11T12:03:50.213Z,98845.00
2018-10-11T12:06:18.579Z,98852.95
2018-10-11T12:08:47.102Z,98854.55
2018-10-11T12:11:15.570Z,98860.74
2018-10-11T12:13:44.026Z,98873.41
2018-10-11T12:16:12.483Z,98882.69
2018-10-11T12:18:40.943Z,98878.56
2018-10-11T12:21:09.377Z,98867.33
2018-10-11T12:23:38.015Z,98860.86
2018-10-11T12:26:06.698Z,98866.45
2018-10-11T12:28:35.182Z,98862.23
2018-10-11T12:31:03.613Z,98860.84
2018-10-11T12:33:32.228Z,98857.56
2018-10-11T12:36:00.751Z,98859.38
2018-10-11T12:38:29.220Z,98857.02
2018-10-11T12:40:57.758Z,98859.42
2018-10-11T12:43:26.237Z,98864.58
2018-10-11T12:45:54.718Z,98850.88
2018-10-11T12:48:23.584Z,98857.21
2018-10-11T12:50:52.088Z,98849.63
2018-10-11T12:53:22.596Z,98852.06
2018-10-11T12:55:51.175Z,98855.75
2018-10-11T12:58:20.186Z,98854.14
2018-10-11T13:00:48.721Z,98861.80
2018-10-11T13:03:17.293Z,98869.52
2018-10-11T13:05:46.427Z,98863.15
2018-10-11T13:08:14.925Z,98865.57
2018-10-11T13:10:43.380Z,98859.70
2018-10-11T13:13:11.986Z,98856.78
2018-10-11T13:15:40.415Z,98861.29
2018-10-11T13:18:08.847Z,98854.70
2018-10-11T13:20:37.385Z,98856.16
2018-10-11T13:23:09.776Z,98855.70
2018-10-11T13:25:34.409Z,98857.45
2018-10-11T13:28:02.831Z,98854.47
2018-10-11T13:30:31.279Z,98849.98
2018-10-11T13:33:00.323Z,98840.77
2018-10-11T13:35:29.997Z,98839.48
2018-10-11T13:37:58.432Z,98847.39
2018-10-11T13:40:27.134Z,98838.57
2018-10-11T13:42:55.571Z,98843.34
2018-10-11T13:45:23.989Z,98848.16
2018-10-11T13:47:52.392Z,98836.16
2018-10-11T13:50:21.637Z,98842.92
2018-10-11T13:52:50.141Z,98844.74
2018-10-11T13:55:18.563Z,98843.25
2018-10-11T13:57:47.042Z,98819.81
2018-10-11T14:00:15.504Z,98843.25
2018-10-11T14:02:44.002Z,98847.37
2018-10-11T14:05:12.406Z,98854.22
2018-10-11T14:07:40.832Z,98844.82
2018-10-11T14:10:09.298Z,98842.77
2018-10-11T14:12:37.732Z,98840.50
2018-10-11T14:15:07.104Z,98841.27
2018-10-11T14:17:35.583Z,98848.84
2018-10-11T14:20:05.069Z,98849.93
2018-10-11T14:22:33.495Z,98852.39
2018-10-11T14:25:01.958Z,98852.72
2018-10-11T14:27:30.403Z,98847.22
2018-10-11T14:29:58.799Z,98864.33
2018-10-11T14:32:27.239Z,98858.49
2018-10-11T14:34:56.514Z,98856.95
2018-10-11T14:37:24.980Z,98853.20
2018-10-11T14:39:53.448Z,98843.98
2018-10-11T14:42:22.624Z,98844.58
2018-10-11T14:44:51.672Z,98838.95
2018-10-11T14:47:21.025Z,98841.14
2018-10-11T14:49:50.255Z,98835.52
2018-10-11T14:52:18.983Z,98834.79
2018-10-11T14:54:47.923Z,98834.25
2018-10-11T14:57:16.486Z,98836.32
2018-10-11T14:59:45.170Z,98837.59
2018-10-11T15:02:14.717Z,98831.05
2018-10-11T15:04:43.617Z,98837.22
2018-10-11T15:07:12.478Z,98839.96
2018-10-11T15:09:41.618Z,98829.59
2018-10-11T15:12:10.307Z,98836.14
2018-10-11T15:14:38.776Z,98835.05
2018-10-11T15:17:08.354Z,98834.33
2018-10-11T15:19:36.848Z,98836.37
2018-10-11T15:22:06.228Z,98838.03
2018-10-11T15:24:34.691Z,98833.48
2018-10-11T15:27:03.152Z,98837.91
2018-10-11T15:29:31.722Z,98839.47
2018-10-11T15:32:00.220Z,98836.80
2018-10-11T15:34:28.619Z,98838.30
2018-10-11T15:36:57.168Z,98836.80
2018-10-11T15:39:26.412Z,98835.92
2018-10-11T15:41:55.871Z,98839.84
2018-10-11T15:44:24.273Z,98836.24
2018-10-11T15:46:52.851Z,98839.55
2018-10-11T15:49:21.256Z,98838.73
2018-10-11T15:51:49.704Z,98843.45
2018-10-11T15:54:18.285Z,98850.94
2018-10-11T15:56:46.736Z,98850.03
2018-10-11T15:59:15.208Z,98843.22
2018-10-11T16:01:43.636Z,98841.55
2018-10-11T16:04:12.079Z,98845.26
2018-10-11T16:08:04.912Z,98843.55
2018-10-11T16:10:33.323Z,98855.84
2018-10-11T16:13:02.487Z,98852.38
2018-10-11T16:15:30.924Z,98858.71
2018-10-11T16:17:59.452Z,98860.07
2018-10-11T16:20:28.755Z,98856.05
2018-10-11T16:22:57.948Z,98863.02
2018-10-11T16:25:26.375Z,98863.33
2018-10-11T16:27:54.825Z,98862.09
2018-10-11T16:30:23.306Z,98870.72
2018-10-11T16:32:51.785Z,98871.00
2018-10-11T16:35:21.039Z,98874.13
2018-10-11T16:37:49.571Z,98877.79
2018-10-11T16:40:18.040Z,98889.59
2018-10-11T16:42:46.940Z,98896.84
2018-10-11T16:45:15.421Z,98902.19
2018-10-11T16:47:43.858Z,98908.14
2018-10-11T16:50:12.332Z,98914.59
2018-10-11T16:52:41.361Z,98911.86
2018-10-11T16:55:09.839Z,98910.63
2018-10-11T16:57:39.707Z,98910.36
2018-10-11T17:00:08.646Z,98906.70
2018-10-11T17:02:37.337Z,98905.33
2018-10-11T17:05:06.134Z,98902.96
2018-10-11T17:07:34.721Z,98904.79
2018-10-11T17:10:03.464Z,98917.09
2018-10-11T17:12:32.234Z,98910.95
2018-10-11T17:15:01.021Z,98916.28
2018-10-11T17:17:29.570Z,98919.14
2018-10-11T17:19:58.735Z,98914.05
2018-10-11T17:22:27.245Z,98921.08
2018-10-11T17:24:56.875Z,98922.17
2018-10-11T17:27:26.360Z,98930.80
2018-10-11T17:29:55.108Z,98933.66
2018-10-11T17:32:23.531Z,98937.27
2018-10-11T17:34:52.295Z,98942.19
2018-10-11T17:37:20.735Z,98943.59
2018-10-11T17:39:49.539Z,98943.83
2018-10-11T17:42:18.057Z,98944.19
2018-10-11T17:44:46.491Z,98946.08
2018-10-11T17:47:14.914Z,98949.13
2018-10-11T17:49:43.438Z,98948.17
2018-10-11T17:52:11.921Z,98948.84
2018-10-11T17:54:44.687Z,98946.86
2018-10-11T17:57:13.136Z,98955.06
2018-10-11T17:59:41.597Z,98953.76
2018-10-11T18:02:10.196Z,98957.61
2018-10-11T18:04:38.664Z,98954.97
2018-10-11T18:07:07.264Z,98964.16
2018-10-11T18:09:39.724Z,98965.34
2018-10-11T18:12:10.741Z,98969.02
2018-10-11T18:14:41.856Z,98973.88
2018-10-11T18:17:10.354Z,98979.67
2018-10-11T18:19:42.482Z,98983.88
2018-10-11T18:22:12.517Z,98986.56
2018-10-11T18:24:41.276Z,98992.70
2018-10-11T18:27:09.861Z,98995.55
2018-10-11T18:29:41.319Z,98990.02
2018-10-11T18:32:11.217Z,98999.74
2018-10-11T18:34:39.789Z,99004.73
2018-10-11T18:37:08.184Z,99002.59
2018-10-11T18:39:36.740Z,99007.45
2018-10-11T18:42:05.187Z,99005.06
2018-10-11T18:44:33.720Z,99006.45
2018-10-11T18:47:03.468Z,99015.48
2018-10-11T18:49:32.027Z,99018.16
2018-10-11T18:52:00.593Z,99006.24
2018-10-11T18:54:29.032Z,99010.58
2018-10-11T18:56:58.232Z,99011.75
2018-10-11T18:59:26.733Z,99011.07
2018-10-11T19:01:55.179Z,99021.76
2018-10-11T19:04:23.568Z,99017.91
2018-10-11T19:06:53.024Z,99019.05
2018-10-11T19:09:21.447Z,99026.88
2018-10-11T19:11:50.488Z,99023.25
2018-10-11T19:14:19.134Z,99016.39
2018-10-11T19:16:47.543Z,99018.87
2018-10-11T19:19:15.924Z,99017.40
2018-10-11T19:21:44.333Z,99018.22
2018-10-11T19:24:12.728Z,99017.05
2018-10-11T19:26:41.311Z,99017.17
2018-10-11T19:29:09.696Z,99019.81
2018-10-11T19:31:38.101Z,99012.47
2018-10-11T19:34:06.476Z,99012.00
2018-10-11T19:36:34.855Z,99015.65
2018-10-11T19:39:03.392Z,99012.03
2018-10-11T19:41:31.796Z,99014.52
2018-10-11T19:44:00.243Z,99009.64
2018-10-11T19:46:28.732Z,99009.84
2018-10-11T19:48:57.108Z,99010.51
2018-10-11T19:51:26.265Z,99014.23
2018-10-11T19:53:54.814Z,99022.90
2018-10-11T19:56:23.200Z,99022.77
2018-10-11T19:58:51.780Z,99023.42
2018-10-11T20:01:20.971Z,99019.57
2018-10-11T20:03:49.367Z,99019.84
2018-10-11T20:06:17.888Z,99018.55
2018-10-11T20:08:46.292Z,99017.70
2018-10-11T20:11:14.725Z,99022.70
2018-10-11T20:13:43.079Z,99020.03
2018-10-11T20:16:12.173Z,99027.69
2018-10-11T20:18:40.877Z,99036.73
2018-10-11T20:21:09.287Z,99039.73
2018-10-11T20:23:37.666Z,99042.24
2018-10-11T20:26:06.131Z,99046.94
2018-10-11T20:28:34.456Z,99040.59
2018-10-11T20:31:02.852Z,99042.76
2018-10-11T20:33:31.251Z,99049.13
2018-10-11T20:35:59.615Z,99048.95
2018-10-11T20:38:28.552Z,99055.94
2018-10-11T20:40:56.941Z,99063.61
2018-10-11T20:43:25.550Z,99059.36
2018-10-11T20:45:53.903Z,99057.15
2018-10-11T20:48:22.334Z,99073.84
2018-10-11T20:50:50.720Z,99076.20
2018-10-11T20:53:19.365Z,99073.02
2018-10-11T20:55:47.736Z,99068.78
2018-10-11T20:58:16.138Z,99075.61
2018-10-11T21:00:44.514Z,99072.94
2018-10-11T21:03:12.925Z,99071.05
2018-10-11T21:05:41.389Z,99079.33
2018-10-11T21:08:10.263Z,99084.96
2018-10-11T21:10:38.632Z,99094.12
2018-10-11T21:13:07.079Z,99087.36
2018-10-11T21:15:35.497Z,99079.36
2018-10-11T21:18:04.255Z,99086.31
2018-10-11T21:20:33.201Z,99094.44
2018-10-11T21:23:01.771Z,99086.06
2018-10-11T21:25:30.195Z,99094.17
2018-10-11T21:27:59.243Z,99092.41
2018-10-11T21:30:27.731Z,99081.17
2018-10-11T21:32:56.160Z,99088.98
2018-10-11T21:35:24.618Z,99081.59
2018-10-11T21:37:54.412Z,99081.94
2018-10-11T21:40:22.954Z,99081.79
2018-10-11T21:42:52.046Z,99091.34
2018-10-11T21:45:20.504Z,99096.34
2018-10-11T21:47:49.148Z,99096.81
2018-10-11T21:50:18.692Z,99099.50
2018-10-11T21:52:47.233Z,99106.25
2018-10-11T21:55:15.725Z,99105.50
2018-10-11T21:57:44.250Z,99109.03
2018-10-11T22:00:12.729Z,99103.03
2018-10-11T22:02:41.845Z,99097.99
2018-10-11T22:05:11.263Z,99108.30
2018-10-11T22:07:39.718Z,99104.10
2018-10-11T22:10:09.001Z,99096.80
2018-10-11T22:12:37.456Z,99101.28
2018-10-11T22:15:06.314Z,99107.77
2018-10-11T22:17:34.651Z,99106.18
2018-10-11T22:20:03.140Z,99102.97
2018-10-11T22:22:32.284Z,99100.73
2018-10-11T22:25:00.796Z,99111.51
2018-10-11T22:27:29.379Z,99113.63
2018-10-11T22:29:57.898Z,99114.86
2018-10-11T22:32:26.368Z,99118.77
2018-10-11T22:34:54.800Z,99125.23
2018-10-11T22:37:23.386Z,99123.95
2018-10-11T22:39:51.911Z,99129.10
2018-10-11T22:42:20.388Z,99126.22
2018-10-11T22:44:48.821Z,99129.28
2018-10-11T22:47:17.241Z,99135.68
2018-10-11T22:49:45.700Z,99140.34
2018-10-11T22:52:14.235Z,99145.84
2018-10-11T22:54:42.782Z,99139.07
2018-10-11T22:57:11.218Z,99151.22
2018-10-11T22:59:40.403Z,99155.96
2018-10-11T23:02:08.845Z,99166.16
2018-10-11T23:04:37.328Z,99173.56
2018-10-11T23:07:05.944Z,99184.48
2018-10-11T23:09:34.376Z,99173.05
2018-10-11T23:12:02.876Z,99183.33
2018-10-11T23:14:31.390Z,99184.03
2018-10-11T23:16:59.996Z,99197.34
2018-10-11T23:19:28.438Z,99188.23
2018-10-11T23:21:56.933Z,99202.14
2018-10-11T23:24:25.979Z,99209.69
2018-10-11T23:26:54.467Z,99208.27
2018-10-11T23:29:23.018Z,99215.54
2018-10-11T23:31:51.509Z,99215.17
2018-10-11T23:34:19.951Z,99221.11
2018-10-11T23:36:48.344Z,99224.73
2018-10-11T23:39:16.780Z,99221.89
2018-10-11T23:41:45.214Z,99227.05
2018-10-11T23:44:13.647Z,99230.87
2018-10-11T23:46:42.426Z,99228.30
2018-10-11T23:49:11.506Z,99227.61
2018-10-11T23:51:40.132Z,99223.24
2018-10-11T23:54:08.952Z,99229.33
2018-10-11T23:56:37.392Z,99230.31
2018-10-11T23:59:05.837Z,99222.47
